»·PEaware :: N2193G KOTH-KMFR

N2193G :: KOTH-KMFR

FLIGHT INFORMATION

Flight Status: Arrived
Operator: Privately registered:
United States
More flights under this callsign
Pilot: Horacio G. (12762)
Aircraft: MOONEY M-20K/M ENCORE BRAVO
(M20T)
More flights by this aircraft type
Origin: KOTH North Bend Mun
United States
Destination: KMFR Rogue Valley Intl-Medford
United States
More flights between these airports :: More routes between these airports
Route: OTH6 DEROY V287 KOLER SAMIE
File this flight plan on PilotEdge
Remarks: RV ILS 14
Altitude:
(Current/Filed)
9,000ft
Speed:
(Current/Filed)
176kts
Departed: 30-Dec-17 02:33 PM
Arrived: 30-Dec-17 03:37 PM
Distance/Time
Traveled:
87nm/1:04
Distance/Time
To Go:
Arrived

Flight Plot

Page will automatically refresh every two minutes.

Flight plan parsing failed; only flown route is shown


Map Options




Map Legend


Flown Route
Filed Route
Departure Airport
Arrival Airport
Navaid (VOR, NDB)
Fix

Horizontal Profiles

Position Reports

Time Latitude Longitude Heading Altitude Ground
Speed
30-Dec-17 14:16 43.415418 -124.245459 68 23ft 0kts
30-Dec-17 14:17 43.415418 -124.245459 68 23ft 0kts
30-Dec-17 14:18 43.415418 -124.245459 68 23ft 0kts
30-Dec-17 14:19 43.415418 -124.245459 68 23ft 0kts
30-Dec-17 14:20 43.415418 -124.245459 68 23ft 0kts
30-Dec-17 14:21 43.415418 -124.245459 68 23ft 0kts
30-Dec-17 14:22 43.415418 -124.245459 68 23ft 0kts
30-Dec-17 14:23 43.415418 -124.245459 68 23ft 0kts
30-Dec-17 14:24 43.415418 -124.245459 68 23ft 0kts
30-Dec-17 14:25 43.415418 -124.245459 68 23ft 0kts
30-Dec-17 14:26 43.415418 -124.245459 68 23ft 0kts
30-Dec-17 14:27 43.415418 -124.245459 68 23ft 0kts
30-Dec-17 14:28 43.415418 -124.245459 68 23ft 0kts
30-Dec-17 14:29 43.415418 -124.245459 68 23ft 0kts
30-Dec-17 14:30 43.415418 -124.245459 68 23ft 0kts
30-Dec-17 14:31 43.415418 -124.245459 68 23ft 0kts
30-Dec-17 14:32 43.415418 -124.245459 68 23ft 0kts
30-Dec-17 14:33 43.415418 -124.245459 68 23ft 0kts
30-Dec-17 14:34 43.415418 -124.245459 68 23ft 0kts
30-Dec-17 14:35 43.415424 -124.245437 64 23ft 2kts
30-Dec-17 14:36 43.417275 -124.245753 4 18ft 8kts
30-Dec-17 14:37 43.418892 -124.247301 254 15ft 0kts
30-Dec-17 14:38 43.419399 -124.246229 73 13ft 14kts
30-Dec-17 14:39 43.402298 -124.233789 175 537ft 112kts
30-Dec-17 14:40 43.401939 -124.265854 297 2043ft 100kts
30-Dec-17 14:41 43.424626 -124.273391 46 3434ft 107kts
30-Dec-17 14:42 43.422113 -124.233505 105 4897ft 115kts
30-Dec-17 14:43 43.417047 -124.189374 99 6316ft 120kts
30-Dec-17 14:44 43.403277 -124.151081 143 7686ft 127kts
30-Dec-17 14:45 43.376859 -124.119188 133 8964ft 138kts
30-Dec-17 14:46 43.344898 -124.074045 133 9045ft 177kts
30-Dec-17 14:47 43.308409 -124.026404 139 9101ft 179kts
30-Dec-17 14:48 43.273926 -123.975682 133 9001ft 183kts
30-Dec-17 14:49 43.236516 -123.928109 136 9041ft 182kts
30-Dec-17 14:50 43.199757 -123.879524 133 9038ft 181kts
30-Dec-17 14:51 43.164673 -123.829056 133 9051ft 182kts
30-Dec-17 14:52 43.127880 -123.780595 137 9032ft 182kts
30-Dec-17 14:53 43.092111 -123.730876 135 9004ft 184kts
30-Dec-17 14:54 43.056971 -123.680304 138 8971ft 186kts
30-Dec-17 14:55 43.020088 -123.632422 138 9009ft 183kts
30-Dec-17 14:56 42.982578 -123.585415 132 9077ft 180kts
30-Dec-17 14:57 42.946177 -123.536701 134 9017ft 185kts
30-Dec-17 14:58 42.910567 -123.486467 131 9041ft 183kts
30-Dec-17 14:59 42.875855 -123.435499 140 9028ft 183kts
30-Dec-17 15:00 42.837996 -123.388460 137 8999ft 183kts
30-Dec-17 15:01 42.801684 -123.339620 136 8986ft 185kts
30-Dec-17 15:02 42.766360 -123.289802 122 9017ft 183kts
30-Dec-17 15:03 42.740105 -123.229982 120 8830ft 191kts
30-Dec-17 15:04 42.711996 -123.166452 119 7573ft 190kts
30-Dec-17 15:05 42.685907 -123.107338 120 6988ft 170kts
30-Dec-17 15:06 42.662061 -123.054534 118 7000ft 164kts
30-Dec-17 15:07 42.632589 -123.008745 155 7013ft 168kts
30-Dec-17 15:08 42.585603 -122.983688 159 5830ft 196kts
30-Dec-17 15:09 42.535413 -122.956984 160 3859ft 192kts
30-Dec-17 15:10 42.494228 -122.935954 162 3782ft 129kts
30-Dec-17 15:11 42.463465 -122.919247 154 2997ft 111kts
30-Dec-17 15:12 42.432042 -122.903168 159 2332ft 120kts
30-Dec-17 15:13 42.401726 -122.886822 160 1659ft 111kts
30-Dec-17 15:14 42.373736 -122.872490 157 2319ft 111kts
30-Dec-17 15:15 42.344829 -122.857104 164 3937ft 107kts
30-Dec-17 15:16 42.330180 -122.877111 289 5267ft 118kts
30-Dec-17 15:17 42.352002 -122.901077 356 6455ft 140kts
30-Dec-17 15:18 42.396651 -122.905326 0 6395ft 159kts
30-Dec-17 15:19 42.437626 -122.908925 358 6410ft 136kts
30-Dec-17 15:20 42.475165 -122.913075 358 6319ft 134kts
30-Dec-17 15:21 42.510638 -122.920395 349 6393ft 130kts
30-Dec-17 15:22 42.530394 -122.951040 243 6367ft 135kts
30-Dec-17 15:23 42.502401 -122.940034 121 6387ft 134kts
30-Dec-17 15:24 42.478504 -122.910955 201 6395ft 134kts
30-Dec-17 15:25 42.478734 -122.946538 342 6395ft 129kts
30-Dec-17 15:26 42.513495 -122.959805 347 6396ft 130kts
30-Dec-17 15:27 42.525090 -122.930089 145 6400ft 134kts
30-Dec-17 15:28 42.489195 -122.914599 172 6385ft 138kts
30-Dec-17 15:29 42.458135 -122.934361 244 6380ft 137kts
30-Dec-17 15:30 42.460678 -122.988200 287 5991ft 142kts
30-Dec-17 15:31 42.468113 -123.030269 285 5970ft 137kts
30-Dec-17 15:32 42.492464 -123.067590 14 5997ft 129kts
30-Dec-17 15:33 42.521196 -123.053927 32 6026ft 133kts
30-Dec-17 15:34 42.552209 -123.024263 32 5986ft 139kts
30-Dec-17 15:35 42.578698 -122.977814 118 5343ft 145kts
30-Dec-17 15:36 42.545742 -122.964556 151 4771ft 116kts
30-Dec-17 15:37 42.520175 -122.949464 156 4203ft 125kts
30-Dec-17 15:38 42.482582 -122.929933 159 3350ft 125kts
30-Dec-17 15:39 42.456203 -122.915361 155 2858ft 120kts
30-Dec-17 15:40 42.424526 -122.898756 156 2182ft 121kts
30-Dec-17 15:41 42.394299 -122.883431 159 1516ft 110kts
30-Dec-17 15:42 42.371946 -122.871698 160 1315ft 43kts
30-Dec-17 15:43 42.370035 -122.872617 319 1315ft 11kts
30-Dec-17 15:44 42.371663 -122.877030 33 1308ft 3kts
30-Dec-17 15:45 42.371722 -122.876922 91 1308ft 0kts

Navigation Log

Ident Type
Flight plan parsing failed, navigation log unavailable